sensor_id;sensor_type;location;lat;lon;timestamp;pressure;altitude;pressure_sealevel;temperature;humidity
67803;BME280;54601;51.378;-1.342;2023-05-29T00:01:57;101267.14;;;23.21;31.05
67803;BME280;54601;51.378;-1.342;2023-05-29T00:04:23;101263.57;;;22.75;31.52
67803;BME280;54601;51.378;-1.342;2023-05-29T00:06:49;101263.06;;;22.96;31.29
67803;BME280;54601;51.378;-1.342;2023-05-29T00:09:15;101270.00;;;22.65;31.22
67803;BME280;54601;51.378;-1.342;2023-05-29T00:11:40;101270.37;;;22.97;31.00
67803;BME280;54601;51.378;-1.342;2023-05-29T00:14:06;101273.09;;;22.81;31.23
67803;BME280;54601;51.378;-1.342;2023-05-29T00:16:32;101277.08;;;22.84;31.20
67803;BME280;54601;51.378;-1.342;2023-05-29T00:18:58;101277.15;;;22.59;31.53
67803;BME280;54601;51.378;-1.342;2023-05-29T00:21:23;101281.81;;;22.79;31.23
67803;BME280;54601;51.378;-1.342;2023-05-29T00:23:49;101286.31;;;22.61;31.31
67803;BME280;54601;51.378;-1.342;2023-05-29T00:26:15;101286.20;;;22.72;31.23
67803;BME280;54601;51.378;-1.342;2023-05-29T00:28:41;101284.84;;;22.76;31.10
67803;BME280;54601;51.378;-1.342;2023-05-29T00:31:07;101287.02;;;22.69;31.17
67803;BME280;54601;51.378;-1.342;2023-05-29T00:33:32;101296.05;;;22.63;31.18
67803;BME280;54601;51.378;-1.342;2023-05-29T00:35:58;101292.29;;;22.91;30.80
67803;BME280;54601;51.378;-1.342;2023-05-29T00:38:24;101297.75;;;22.71;30.93
67803;BME280;54601;51.378;-1.342;2023-05-29T00:40:50;101298.90;;;23.13;30.78
67803;BME280;54601;51.378;-1.342;2023-05-29T00:43:15;101295.82;;;22.40;31.25
67803;BME280;54601;51.378;-1.342;2023-05-29T00:45:41;101298.02;;;22.36;31.31
67803;BME280;54601;51.378;-1.342;2023-05-29T00:48:07;101292.22;;;22.51;31.07
67803;BME280;54601;51.378;-1.342;2023-05-29T00:50:33;101294.20;;;22.61;30.86
67803;BME280;54601;51.378;-1.342;2023-05-29T00:52:59;101298.14;;;22.56;31.04
67803;BME280;54601;51.378;-1.342;2023-05-29T00:55:24;101296.75;;;22.59;30.79
67803;BME280;54601;51.378;-1.342;2023-05-29T00:57:50;101297.60;;;22.48;30.97
67803;BME280;54601;51.378;-1.342;2023-05-29T01:00:17;101296.81;;;22.70;30.41
67803;BME280;54601;51.378;-1.342;2023-05-29T01:02:42;101300.02;;;22.89;30.24
67803;BME280;54601;51.378;-1.342;2023-05-29T01:05:08;101305.28;;;23.16;30.18
67803;BME280;54601;51.378;-1.342;2023-05-29T01:07:33;101302.70;;;22.64;30.47
67803;BME280;54601;51.378;-1.342;2023-05-29T01:09:59;101301.39;;;22.50;30.45
67803;BME280;54601;51.378;-1.342;2023-05-29T01:12:32;101304.74;;;22.33;30.79
67803;BME280;54601;51.378;-1.342;2023-05-29T01:15:01;101302.82;;;22.15;30.91
67803;BME280;54601;51.378;-1.342;2023-05-29T01:17:19;101307.46;;;22.81;30.06
67803;BME280;54601;51.378;-1.342;2023-05-29T01:22:12;101306.41;;;22.49;30.40
67803;BME280;54601;51.378;-1.342;2023-05-29T01:24:45;101308.92;;;22.41;30.55
67803;BME280;54601;51.378;-1.342;2023-05-29T01:27:01;101307.81;;;22.41;30.44
67803;BME280;54601;51.378;-1.342;2023-05-29T01:29:28;101308.35;;;22.70;30.29
67803;BME280;54601;51.378;-1.342;2023-05-29T01:31:52;101311.01;;;22.49;30.25
67803;BME280;54601;51.378;-1.342;2023-05-29T01:34:17;101308.83;;;22.52;30.20
67803;BME280;54601;51.378;-1.342;2023-05-29T01:36:43;101308.62;;;22.84;29.77
67803;BME280;54601;51.378;-1.342;2023-05-29T01:39:09;101308.24;;;22.60;30.03
67803;BME280;54601;51.378;-1.342;2023-05-29T01:41:35;101307.79;;;22.25;30.42
67803;BME280;54601;51.378;-1.342;2023-05-29T01:44:02;101307.79;;;22.64;29.82
67803;BME280;54601;51.378;-1.342;2023-05-29T01:46:26;101309.16;;;22.49;30.20
67803;BME280;54601;51.378;-1.342;2023-05-29T01:48:53;101310.53;;;22.72;29.95
67803;BME280;54601;51.378;-1.342;2023-05-29T01:51:18;101307.08;;;22.38;30.09
67803;BME280;54601;51.378;-1.342;2023-05-29T01:53:43;101303.54;;;22.74;29.90
67803;BME280;54601;51.378;-1.342;2023-05-29T01:56:09;101307.22;;;22.63;30.10
67803;BME280;54601;51.378;-1.342;2023-05-29T01:58:35;101304.07;;;22.41;29.84
67803;BME280;54601;51.378;-1.342;2023-05-29T02:01:01;101303.32;;;22.49;30.16
67803;BME280;54601;51.378;-1.342;2023-05-29T02:03:26;101303.05;;;22.45;29.87
67803;BME280;54601;51.378;-1.342;2023-05-29T02:05:52;101305.43;;;22.56;29.92
67803;BME280;54601;51.378;-1.342;2023-05-29T02:08:17;101305.96;;;22.90;29.63
67803;BME280;54601;51.378;-1.342;2023-05-29T02:10:43;101306.00;;;22.36;29.82
67803;BME280;54601;51.378;-1.342;2023-05-29T02:13:09;101303.77;;;22.81;29.75
67803;BME280;54601;51.378;-1.342;2023-05-29T02:15:35;101307.72;;;22.62;29.71
67803;BME280;54601;51.378;-1.342;2023-05-29T02:18:00;101306.25;;;22.67;29.59
67803;BME280;54601;51.378;-1.342;2023-05-29T02:20:26;101302.91;;;22.33;29.76
67803;BME280;54601;51.378;-1.342;2023-05-29T02:22:52;101307.87;;;22.73;29.45
67803;BME280;54601;51.378;-1.342;2023-05-29T02:25:18;101303.38;;;22.42;29.52
67803;BME280;54601;51.378;-1.342;2023-05-29T02:27:43;101302.76;;;22.29;29.71
67803;BME280;54601;51.378;-1.342;2023-05-29T02:30:10;101305.40;;;22.78;29.31
67803;BME280;54601;51.378;-1.342;2023-05-29T02:32:35;101303.25;;;22.73;29.38
67803;BME280;54601;51.378;-1.342;2023-05-29T02:35:01;101301.68;;;22.83;29.49
67803;BME280;54601;51.378;-1.342;2023-05-29T02:37:26;101298.67;;;23.07;29.25
67803;BME280;54601;51.378;-1.342;2023-05-29T02:39:52;101298.07;;;22.42;29.22
67803;BME280;54601;51.378;-1.342;2023-05-29T02:42:18;101296.44;;;22.28;29.65
67803;BME280;54601;51.378;-1.342;2023-05-29T02:44:44;101295.48;;;22.35;29.25
67803;BME280;54601;51.378;-1.342;2023-05-29T02:47:09;101295.19;;;22.55;29.35
67803;BME280;54601;51.378;-1.342;2023-05-29T02:49:35;101290.98;;;22.32;29.33
67803;BME280;54601;51.378;-1.342;2023-05-29T02:52:01;101291.89;;;22.76;29.44
67803;BME280;54601;51.378;-1.342;2023-05-29T02:54:27;101290.95;;;22.80;29.31
67803;BME280;54601;51.378;-1.342;2023-05-29T02:56:53;101293.72;;;22.79;29.28
67803;BME280;54601;51.378;-1.342;2023-05-29T02:59:19;101287.39;;;22.96;29.05
67803;BME280;54601;51.378;-1.342;2023-05-29T03:01:44;101287.13;;;23.08;29.02
67803;BME280;54601;51.378;-1.342;2023-05-29T03:04:10;101285.65;;;22.84;29.11
67803;BME280;54601;51.378;-1.342;2023-05-29T03:06:36;101285.74;;;22.19;29.23
67803;BME280;54601;51.378;-1.342;2023-05-29T03:09:01;101282.22;;;22.66;29.27
67803;BME280;54601;51.378;-1.342;2023-05-29T03:11:27;101280.58;;;22.66;29.21
67803;BME280;54601;51.378;-1.342;2023-05-29T03:13:53;101281.96;;;22.58;29.34
67803;BME280;54601;51.378;-1.342;2023-05-29T03:16:19;101280.92;;;22.99;28.80
67803;BME280;54601;51.378;-1.342;2023-05-29T03:18:44;101280.83;;;22.20;28.89
67803;BME280;54601;51.378;-1.342;2023-05-29T03:21:10;101280.75;;;22.54;28.96
67803;BME280;54601;51.378;-1.342;2023-05-29T03:23:36;101283.13;;;22.51;29.04
67803;BME280;54601;51.378;-1.342;2023-05-29T03:26:02;101281.59;;;22.61;28.84
67803;BME280;54601;51.378;-1.342;2023-05-29T03:28:27;101281.38;;;22.70;28.88
67803;BME280;54601;51.378;-1.342;2023-05-29T03:30:53;101282.78;;;22.58;28.92
67803;BME280;54601;51.378;-1.342;2023-05-29T03:33:19;101284.97;;;22.89;28.76
67803;BME280;54601;51.378;-1.342;2023-05-29T03:35:45;101284.75;;;22.87;28.84
67803;BME280;54601;51.378;-1.342;2023-05-29T03:38:10;101286.62;;;22.74;28.83
67803;BME280;54601;51.378;-1.342;2023-05-29T03:40:36;101288.43;;;22.54;28.71
67803;BME280;54601;51.378;-1.342;2023-05-29T03:43:02;101288.77;;;22.09;29.04
67803;BME280;54601;51.378;-1.342;2023-05-29T03:45:28;101295.71;;;22.52;28.70
67803;BME280;54601;51.378;-1.342;2023-05-29T03:47:54;101299.25;;;22.25;28.69
67803;BME280;54601;51.378;-1.342;2023-05-29T03:50:19;101301.33;;;22.77;28.70
67803;BME280;54601;51.378;-1.342;2023-05-29T03:52:45;101301.65;;;22.78;28.71
67803;BME280;54601;51.378;-1.342;2023-05-29T03:55:11;101307.07;;;22.62;28.46
67803;BME280;54601;51.378;-1.342;2023-05-29T03:57:37;101308.03;;;22.89;28.47
67803;BME280;54601;51.378;-1.342;2023-05-29T04:00:03;101312.76;;;22.77;28.58
67803;BME280;54601;51.378;-1.342;2023-05-29T04:02:28;101312.50;;;22.49;28.54
67803;BME280;54601;51.378;-1.342;2023-05-29T04:04:54;101317.07;;;22.49;28.79
67803;BME280;54601;51.378;-1.342;2023-05-29T04:07:20;101322.14;;;22.37;28.86
67803;BME280;54601;51.378;-1.342;2023-05-29T04:09:46;101319.04;;;22.48;28.71
67803;BME280;54601;51.378;-1.342;2023-05-29T04:12:11;101320.90;;;22.44;28.71
67803;BME280;54601;51.378;-1.342;2023-05-29T04:14:37;101325.47;;;22.39;28.95
67803;BME280;54601;51.378;-1.342;2023-05-29T04:17:03;101322.02;;;22.50;28.84
67803;BME280;54601;51.378;-1.342;2023-05-29T04:19:29;101320.84;;;22.58;28.43
67803;BME280;54601;51.378;-1.342;2023-05-29T04:21:55;101321.79;;;22.18;29.04
67803;BME280;54601;51.378;-1.342;2023-05-29T04:24:21;101320.47;;;22.66;28.28
67803;BME280;54601;51.378;-1.342;2023-05-29T04:26:47;101320.11;;;22.57;28.19
67803;BME280;54601;51.378;-1.342;2023-05-29T04:29:12;101319.84;;;22.40;28.03
67803;BME280;54601;51.378;-1.342;2023-05-29T04:31:38;101320.76;;;22.78;28.29
67803;BME280;54601;51.378;-1.342;2023-05-29T04:34:04;101327.68;;;22.42;28.20
67803;BME280;54601;51.378;-1.342;2023-05-29T04:36:30;101326.25;;;22.66;28.22
67803;BME280;54601;51.378;-1.342;2023-05-29T04:38:56;101329.82;;;22.12;28.48
67803;BME280;54601;51.378;-1.342;2023-05-29T04:41:22;101330.11;;;22.55;28.19
67803;BME280;54601;51.378;-1.342;2023-05-29T04:43:48;101336.92;;;22.45;28.48
67803;BME280;54601;51.378;-1.342;2023-05-29T04:46:14;101334.69;;;22.44;28.25
67803;BME280;54601;51.378;-1.342;2023-05-29T04:48:40;101340.71;;;22.70;28.38
67803;BME280;54601;51.378;-1.342;2023-05-29T04:51:05;101344.26;;;22.50;28.07
67803;BME280;54601;51.378;-1.342;2023-05-29T04:53:31;101346.43;;;22.47;28.28
67803;BME280;54601;51.378;-1.342;2023-05-29T04:55:57;101344.85;;;22.57;28.21
67803;BME280;54601;51.378;-1.342;2023-05-29T04:58:26;101344.82;;;22.42;28.26
67803;BME280;54601;51.378;-1.342;2023-05-29T05:00:49;101345.09;;;22.04;28.60
67803;BME280;54601;51.378;-1.342;2023-05-29T05:03:15;101347.95;;;22.60;28.39
67803;BME280;54601;51.378;-1.342;2023-05-29T05:05:40;101348.34;;;22.40;28.30
67803;BME280;54601;51.378;-1.342;2023-05-29T05:08:06;101348.86;;;22.35;28.62
67803;BME280;54601;51.378;-1.342;2023-05-29T05:10:32;101347.75;;;22.33;28.51
67803;BME280;54601;51.378;-1.342;2023-05-29T05:12:58;101351.38;;;22.46;28.16
67803;BME280;54601;51.378;-1.342;2023-05-29T05:15:24;101351.52;;;22.43;28.17
67803;BME280;54601;51.378;-1.342;2023-05-29T05:17:50;101348.38;;;22.49;28.28
67803;BME280;54601;51.378;-1.342;2023-05-29T05:20:16;101350.99;;;22.27;28.44
67803;BME280;54601;51.378;-1.342;2023-05-29T05:22:41;101349.79;;;22.33;28.19
67803;BME280;54601;51.378;-1.342;2023-05-29T05:25:08;101353.44;;;21.98;28.68
67803;BME280;54601;51.378;-1.342;2023-05-29T05:27:33;101354.81;;;21.85;28.46
67803;BME280;54601;51.378;-1.342;2023-05-29T05:29:59;101356.16;;;22.09;28.52
67803;BME280;54601;51.378;-1.342;2023-05-29T05:32:25;101360.55;;;22.23;28.23
67803;BME280;54601;51.378;-1.342;2023-05-29T05:34:51;101360.87;;;22.34;28.38
67803;BME280;54601;51.378;-1.342;2023-05-29T05:37:17;101362.47;;;22.29;28.33
67803;BME280;54601;51.378;-1.342;2023-05-29T05:39:42;101360.40;;;22.29;28.18
67803;BME280;54601;51.378;-1.342;2023-05-29T05:42:08;101360.83;;;22.00;28.48
67803;BME280;54601;51.378;-1.342;2023-05-29T05:44:34;101363.65;;;22.27;28.37
67803;BME280;54601;51.378;-1.342;2023-05-29T05:47:00;101362.30;;;22.02;28.39
67803;BME280;54601;51.378;-1.342;2023-05-29T05:49:26;101359.59;;;22.15;28.40
67803;BME280;54601;51.378;-1.342;2023-05-29T05:51:52;101366.93;;;22.43;28.17
67803;BME280;54601;51.378;-1.342;2023-05-29T05:54:18;101368.77;;;22.18;28.18
67803;BME280;54601;51.378;-1.342;2023-05-29T05:56:44;101369.27;;;22.50;28.35
67803;BME280;54601;51.378;-1.342;2023-05-29T05:59:10;101373.99;;;21.93;28.38
67803;BME280;54601;51.378;-1.342;2023-05-29T06:01:35;101373.39;;;22.29;28.34
67803;BME280;54601;51.378;-1.342;2023-05-29T06:04:01;101376.44;;;22.23;28.40
67803;BME280;54601;51.378;-1.342;2023-05-29T06:06:27;101375.49;;;21.99;28.38
67803;BME280;54601;51.378;-1.342;2023-05-29T06:08:53;101379.59;;;22.28;28.26
67803;BME280;54601;51.378;-1.342;2023-05-29T06:11:19;101378.61;;;21.86;28.49
67803;BME280;54601;51.378;-1.342;2023-05-29T06:13:45;101377.29;;;21.98;28.53
67803;BME280;54601;51.378;-1.342;2023-05-29T06:16:10;101378.24;;;22.21;28.44
67803;BME280;54601;51.378;-1.342;2023-05-29T06:18:36;101372.96;;;21.89;28.24
67803;BME280;54601;51.378;-1.342;2023-05-29T06:21:02;101374.20;;;21.83;28.58
67803;BME280;54601;51.378;-1.342;2023-05-29T06:23:28;101372.84;;;22.19;28.36
67803;BME280;54601;51.378;-1.342;2023-05-29T06:25:54;101378.59;;;21.53;29.19
67803;BME280;54601;51.378;-1.342;2023-05-29T06:28:20;101380.48;;;21.55;29.28
67803;BME280;54601;51.378;-1.342;2023-05-29T06:30:46;101384.11;;;21.52;29.30
67803;BME280;54601;51.378;-1.342;2023-05-29T06:33:12;101386.45;;;21.45;29.47
67803;BME280;54601;51.378;-1.342;2023-05-29T06:35:37;101388.49;;;21.93;29.05
67803;BME280;54601;51.378;-1.342;2023-05-29T06:38:03;101388.31;;;21.62;29.01
67803;BME280;54601;51.378;-1.342;2023-05-29T06:40:29;101383.77;;;21.97;28.75
67803;BME280;54601;51.378;-1.342;2023-05-29T06:42:55;101385.84;;;21.74;29.21
67803;BME280;54601;51.378;-1.342;2023-05-29T06:45:21;101380.70;;;21.67;29.39
67803;BME280;54601;51.378;-1.342;2023-05-29T06:47:47;101383.83;;;21.70;29.32
67803;BME280;54601;51.378;-1.342;2023-05-29T06:50:14;101383.04;;;22.15;28.94
67803;BME280;54601;51.378;-1.342;2023-05-29T06:52:39;101382.11;;;22.07;29.12
67803;BME280;54601;51.378;-1.342;2023-05-29T06:55:05;101381.75;;;22.28;28.91
67803;BME280;54601;51.378;-1.342;2023-05-29T06:57:30;101381.81;;;22.21;28.80
67803;BME280;54601;51.378;-1.342;2023-05-29T06:59:56;101386.33;;;22.48;28.39
67803;BME280;54601;51.378;-1.342;2023-05-29T07:02:22;101382.87;;;22.83;28.43
67803;BME280;54601;51.378;-1.342;2023-05-29T07:04:48;101376.93;;;22.99;28.09
67803;BME280;54601;51.378;-1.342;2023-05-29T07:07:13;101378.07;;;23.06;27.90
67803;BME280;54601;51.378;-1.342;2023-05-29T07:09:39;101380.07;;;22.86;27.79
67803;BME280;54601;51.378;-1.342;2023-05-29T07:12:06;101379.21;;;23.09;27.72
67803;BME280;54601;51.378;-1.342;2023-05-29T07:14:31;101373.60;;;22.92;27.52
67803;BME280;54601;51.378;-1.342;2023-05-29T07:16:57;101375.14;;;22.63;27.81
67803;BME280;54601;51.378;-1.342;2023-05-29T07:19:23;101374.16;;;22.91;27.74
67803;BME280;54601;51.378;-1.342;2023-05-29T07:21:48;101371.81;;;22.76;27.60
67803;BME280;54601;51.378;-1.342;2023-05-29T07:24:14;101373.42;;;23.24;27.60
67803;BME280;54601;51.378;-1.342;2023-05-29T07:26:40;101373.72;;;23.03;27.54
67803;BME280;54601;51.378;-1.342;2023-05-29T07:29:06;101367.60;;;22.77;27.94
67803;BME280;54601;51.378;-1.342;2023-05-29T07:31:32;101371.37;;;22.75;28.10
67803;BME280;54601;51.378;-1.342;2023-05-29T07:33:58;101367.49;;;22.71;27.93
67803;BME280;54601;51.378;-1.342;2023-05-29T07:36:28;101366.89;;;22.95;28.18
67803;BME280;54601;51.378;-1.342;2023-05-29T07:38:49;101367.48;;;22.95;27.83
67803;BME280;54601;51.378;-1.342;2023-05-29T07:41:16;101366.77;;;23.20;27.51
67803;BME280;54601;51.378;-1.342;2023-05-29T07:43:41;101370.87;;;23.39;27.46
67803;BME280;54601;51.378;-1.342;2023-05-29T07:46:07;101368.42;;;22.88;27.35
67803;BME280;54601;51.378;-1.342;2023-05-29T07:48:32;101375.47;;;23.32;27.48
67803;BME280;54601;51.378;-1.342;2023-05-29T07:50:59;101371.71;;;23.34;27.46
67803;BME280;54601;51.378;-1.342;2023-05-29T07:53:24;101380.35;;;23.35;27.23
67803;BME280;54601;51.378;-1.342;2023-05-29T07:55:50;101378.75;;;23.11;27.30
67803;BME280;54601;51.378;-1.342;2023-05-29T07:58:16;101377.13;;;23.16;27.23
67803;BME280;54601;51.378;-1.342;2023-05-29T08:00:44;101376.29;;;23.20;27.17
67803;BME280;54601;51.378;-1.342;2023-05-29T08:03:07;101375.28;;;23.41;27.22
67803;BME280;54601;51.378;-1.342;2023-05-29T08:05:33;101375.50;;;23.24;27.23
67803;BME280;54601;51.378;-1.342;2023-05-29T08:07:59;101380.35;;;23.31;27.25
67803;BME280;54601;51.378;-1.342;2023-05-29T08:10:25;101382.22;;;23.18;27.11
67803;BME280;54601;51.378;-1.342;2023-05-29T08:12:51;101385.32;;;23.23;27.01
67803;BME280;54601;51.378;-1.342;2023-05-29T08:15:16;101386.40;;;23.56;27.02
67803;BME280;54601;51.378;-1.342;2023-05-29T08:17:42;101382.93;;;23.22;27.24
67803;BME280;54601;51.378;-1.342;2023-05-29T08:20:09;101384.08;;;23.32;27.14
67803;BME280;54601;51.378;-1.342;2023-05-29T08:22:34;101387.76;;;23.39;27.10
67803;BME280;54601;51.378;-1.342;2023-05-29T08:25:00;101388.24;;;23.46;27.10
67803;BME280;54601;51.378;-1.342;2023-05-29T08:27:25;101392.34;;;23.34;27.10
67803;BME280;54601;51.378;-1.342;2023-05-29T08:29:51;101389.02;;;23.44;27.02
67803;BME280;54601;51.378;-1.342;2023-05-29T08:32:17;101384.99;;;23.44;27.19
67803;BME280;54601;51.378;-1.342;2023-05-29T08:34:43;101380.92;;;23.49;27.18
67803;BME280;54601;51.378;-1.342;2023-05-29T08:37:09;101383.57;;;23.85;27.14
67803;BME280;54601;51.378;-1.342;2023-05-29T08:39:35;101383.80;;;23.56;27.21
67803;BME280;54601;51.378;-1.342;2023-05-29T08:42:06;101387.97;;;23.57;27.19
67803;BME280;54601;51.378;-1.342;2023-05-29T08:44:29;101387.51;;;23.66;27.23
67803;BME280;54601;51.378;-1.342;2023-05-29T08:46:55;101391.81;;;23.70;27.18
67803;BME280;54601;51.378;-1.342;2023-05-29T08:49:19;101385.72;;;23.76;27.19
67803;BME280;54601;51.378;-1.342;2023-05-29T08:51:47;101390.12;;;23.68;27.33
67803;BME280;54601;51.378;-1.342;2023-05-29T08:54:10;101383.82;;;23.74;27.28
67803;BME280;54601;51.378;-1.342;2023-05-29T08:56:36;101382.82;;;23.84;27.27
67803;BME280;54601;51.378;-1.342;2023-05-29T08:59:01;101387.37;;;23.86;27.31
67803;BME280;54601;51.378;-1.342;2023-05-29T09:01:27;101387.19;;;23.65;27.54
67803;BME280;54601;51.378;-1.342;2023-05-29T09:03:53;101380.54;;;23.53;27.76
67803;BME280;54601;51.378;-1.342;2023-05-29T09:06:19;101383.25;;;23.69;27.65
67803;BME280;54601;51.378;-1.342;2023-05-29T09:08:44;101379.36;;;23.76;27.57
67803;BME280;54601;51.378;-1.342;2023-05-29T09:11:10;101379.57;;;23.70;27.73
67803;BME280;54601;51.378;-1.342;2023-05-29T09:13:36;101381.35;;;24.28;27.72
67803;BME280;54601;51.378;-1.342;2023-05-29T09:16:02;101382.31;;;23.83;27.63
67803;BME280;54601;51.378;-1.342;2023-05-29T09:18:29;101376.02;;;23.88;27.58
67803;BME280;54601;51.378;-1.342;2023-05-29T09:20:53;101374.30;;;24.07;27.46
67803;BME280;54601;51.378;-1.342;2023-05-29T09:23:19;101372.35;;;24.09;27.48
67803;BME280;54601;51.378;-1.342;2023-05-29T09:25:51;101374.16;;;23.71;27.64
67803;BME280;54601;51.378;-1.342;2023-05-29T09:28:10;101371.30;;;24.09;27.60
67803;BME280;54601;51.378;-1.342;2023-05-29T09:30:37;101378.45;;;24.02;27.67
67803;BME280;54601;51.378;-1.342;2023-05-29T09:33:03;101380.32;;;24.11;27.63
67803;BME280;54601;51.378;-1.342;2023-05-29T09:35:33;101383.23;;;24.14;27.69
67803;BME280;54601;51.378;-1.342;2023-05-29T09:37:53;101383.98;;;24.22;27.61
67803;BME280;54601;51.378;-1.342;2023-05-29T09:40:19;101385.98;;;24.05;27.58
67803;BME280;54601;51.378;-1.342;2023-05-29T09:42:46;101393.19;;;24.35;27.49
67803;BME280;54601;51.378;-1.342;2023-05-29T09:45:11;101391.14;;;24.10;27.44
67803;BME280;54601;51.378;-1.342;2023-05-29T09:47:38;101390.47;;;23.90;27.51
67803;BME280;54601;51.378;-1.342;2023-05-29T09:50:03;101389.82;;;24.43;27.47
67803;BME280;54601;51.378;-1.342;2023-05-29T09:52:29;101392.85;;;24.38;27.45
67803;BME280;54601;51.378;-1.342;2023-05-29T09:54:54;101399.64;;;24.37;27.55
67803;BME280;54601;51.378;-1.342;2023-05-29T09:57:20;101390.42;;;24.19;27.51
67803;BME280;54601;51.378;-1.342;2023-05-29T09:59:46;101394.91;;;24.22;27.54
67803;BME280;54601;51.378;-1.342;2023-05-29T10:02:11;101395.56;;;24.46;27.53
67803;BME280;54601;51.378;-1.342;2023-05-29T10:04:37;101385.82;;;24.18;27.55
67803;BME280;54601;51.378;-1.342;2023-05-29T10:07:06;101392.72;;;24.54;27.50
67803;BME280;54601;51.378;-1.342;2023-05-29T10:09:29;101395.04;;;24.30;27.50
67803;BME280;54601;51.378;-1.342;2023-05-29T10:11:55;101381.48;;;24.59;27.45
67803;BME280;54601;51.378;-1.342;2023-05-29T10:14:21;101393.85;;;24.32;27.54
67803;BME280;54601;51.378;-1.342;2023-05-29T10:16:47;101379.36;;;24.51;27.50
67803;BME280;54601;51.378;-1.342;2023-05-29T10:19:12;101374.63;;;24.59;27.55
67803;BME280;54601;51.378;-1.342;2023-05-29T10:21:37;101377.16;;;24.32;27.50
67803;BME280;54601;51.378;-1.342;2023-05-29T10:24:06;101384.37;;;24.13;27.50
67803;BME280;54601;51.378;-1.342;2023-05-29T10:26:30;101388.91;;;24.43;27.46
67803;BME280;54601;51.378;-1.342;2023-05-29T10:28:59;101386.55;;;24.73;27.33
67803;BME280;54601;51.378;-1.342;2023-05-29T10:31:24;101396.27;;;24.46;27.40
67803;BME280;54601;51.378;-1.342;2023-05-29T10:33:55;101389.30;;;24.63;27.45
67803;BME280;54601;51.378;-1.342;2023-05-29T10:36:14;101388.66;;;24.48;27.37
67803;BME280;54601;51.378;-1.342;2023-05-29T10:38:40;101389.42;;;24.51;27.38
67803;BME280;54601;51.378;-1.342;2023-05-29T10:43:31;101386.38;;;24.67;27.37
67803;BME280;54601;51.378;-1.342;2023-05-29T10:45:54;101386.42;;;24.41;27.37
67803;BME280;54601;51.378;-1.342;2023-05-29T10:50:47;101377.51;;;24.62;27.37
67803;BME280;54601;51.378;-1.342;2023-05-29T10:53:15;101370.82;;;24.37;27.41
67803;BME280;54601;51.378;-1.342;2023-05-29T10:55:38;101377.18;;;24.59;27.38
67803;BME280;54601;51.378;-1.342;2023-05-29T10:58:04;101372.20;;;24.59;27.41
67803;BME280;54601;51.378;-1.342;2023-05-29T11:00:29;101374.65;;;24.35;27.35
67803;BME280;54601;51.378;-1.342;2023-05-29T11:02:54;101376.86;;;24.60;27.36
67803;BME280;54601;51.378;-1.342;2023-05-29T11:05:21;101377.75;;;24.33;27.41
67803;BME280;54601;51.378;-1.342;2023-05-29T11:07:51;101376.66;;;24.53;27.43
67803;BME280;54601;51.378;-1.342;2023-05-29T11:10:12;101378.42;;;24.40;27.41
67803;BME280;54601;51.378;-1.342;2023-05-29T11:15:05;101373.22;;;24.23;27.56
67803;BME280;54601;51.378;-1.342;2023-05-29T11:17:30;101377.54;;;24.50;27.52
67803;BME280;54601;51.378;-1.342;2023-05-29T11:19:56;101370.20;;;24.40;27.65
67803;BME280;54601;51.378;-1.342;2023-05-29T11:22:26;101371.73;;;24.43;27.56
67803;BME280;54601;51.378;-1.342;2023-05-29T11:24:46;101370.62;;;24.41;27.56
67803;BME280;54601;51.378;-1.342;2023-05-29T11:27:12;101373.24;;;24.23;27.55
67803;BME280;54601;51.378;-1.342;2023-05-29T11:29:37;101374.48;;;24.40;27.56
67803;BME280;54601;51.378;-1.342;2023-05-29T11:32:05;101362.62;;;24.15;27.63
67803;BME280;54601;51.378;-1.342;2023-05-29T11:34:30;101374.80;;;24.28;27.67
67803;BME280;54601;51.378;-1.342;2023-05-29T11:36:57;101366.07;;;24.39;27.52
67803;BME280;54601;51.378;-1.342;2023-05-29T11:39:21;101364.87;;;24.10;27.57
67803;BME280;54601;51.378;-1.342;2023-05-29T11:41:50;101359.03;;;24.28;27.66
67803;BME280;54601;51.378;-1.342;2023-05-29T11:44:13;101367.68;;;23.78;27.58
67803;BME280;54601;51.378;-1.342;2023-05-29T11:46:38;101362.45;;;24.11;27.57
67803;BME280;54601;51.378;-1.342;2023-05-29T11:49:03;101366.56;;;24.29;27.49
67803;BME280;54601;51.378;-1.342;2023-05-29T11:51:30;101364.10;;;24.25;27.62
67803;BME280;54601;51.378;-1.342;2023-05-29T11:53:55;101365.40;;;23.99;27.53
67803;BME280;54601;51.378;-1.342;2023-05-29T11:56:21;101371.44;;;24.12;27.64
67803;BME280;54601;51.378;-1.342;2023-05-29T11:58:46;101367.89;;;24.19;27.54
67803;BME280;54601;51.378;-1.342;2023-05-29T12:01:16;101358.55;;;24.01;27.54
67803;BME280;54601;51.378;-1.342;2023-05-29T12:03:39;101356.26;;;23.90;27.63
67803;BME280;54601;51.378;-1.342;2023-05-29T12:06:04;101356.80;;;24.06;27.68
67803;BME280;54601;51.378;-1.342;2023-05-29T12:08:29;101356.52;;;23.91;27.67
67803;BME280;54601;51.378;-1.342;2023-05-29T12:10:55;101353.52;;;24.16;27.63
67803;BME280;54601;51.378;-1.342;2023-05-29T12:13:22;101349.10;;;23.83;27.71
67803;BME280;54601;51.378;-1.342;2023-05-29T12:15:49;101350.55;;;24.27;27.54
67803;BME280;54601;51.378;-1.342;2023-05-29T12:18:13;101352.96;;;23.95;27.60
67803;BME280;54601;51.378;-1.342;2023-05-29T12:20:38;101350.22;;;23.90;27.65
67803;BME280;54601;51.378;-1.342;2023-05-29T12:23:05;101342.85;;;24.11;27.62
67803;BME280;54601;51.378;-1.342;2023-05-29T12:25:30;101347.89;;;24.12;27.63
67803;BME280;54601;51.378;-1.342;2023-05-29T12:27:56;101346.98;;;23.85;27.70
67803;BME280;54601;51.378;-1.342;2023-05-29T12:30:22;101346.40;;;23.80;27.72
67803;BME280;54601;51.378;-1.342;2023-05-29T12:32:48;101346.58;;;24.06;27.63
67803;BME280;54601;51.378;-1.342;2023-05-29T12:35:15;101351.22;;;23.81;27.65
67803;BME280;54601;51.378;-1.342;2023-05-29T12:37:44;101347.66;;;24.03;27.66
67803;BME280;54601;51.378;-1.342;2023-05-29T12:40:09;101346.28;;;24.00;27.48
67803;BME280;54601;51.378;-1.342;2023-05-29T12:42:30;101341.63;;;24.12;27.58